createdAt,value
2022-11-09T00:01:02.186Z,96577.34
2022-11-09T00:03:28.505Z,96578.16
2022-11-09T00:05:56.749Z,96572.88
2022-11-09T00:08:23.089Z,96570.50
2022-11-09T00:10:49.557Z,96568.56
2022-11-09T00:13:16.133Z,96567.00
2022-11-09T00:15:42.613Z,96571.31
2022-11-09T00:18:08.994Z,96572.84
2022-11-09T00:20:35.328Z,96571.88
2022-11-09T00:23:01.698Z,96565.09
2022-11-09T00:25:28.045Z,96570.06
2022-11-09T00:27:54.431Z,96561.59
2022-11-09T00:30:20.791Z,96564.94
2022-11-09T00:32:48.027Z,96559.91
2022-11-09T00:35:14.539Z,96565.84
2022-11-09T00:37:40.996Z,96562.41
2022-11-09T00:40:08.657Z,96564.88
2022-11-09T00:42:34.998Z,96565.75
2022-11-09T00:45:01.394Z,96565.63
2022-11-09T00:47:27.743Z,96562.16
2022-11-09T00:49:54.073Z,96556.13
2022-11-09T00:52:20.415Z,96556.06
2022-11-09T00:54:46.780Z,96545.81
2022-11-09T00:57:14.069Z,96551.78
2022-11-09T00:59:40.530Z,96536.38
2022-11-09T01:02:06.920Z,96558.75
2022-11-09T01:04:33.271Z,96550.94
2022-11-09T01:06:59.949Z,96544.16
2022-11-09T01:09:26.404Z,96545.00
2022-11-09T01:11:52.887Z,96536.59
2022-11-09T01:14:19.269Z,96521.34
2022-11-09T01:16:45.622Z,96522.03
2022-11-09T01:19:12.045Z,96516.09
2022-11-09T01:21:38.448Z,96501.66
2022-11-09T01:24:05.400Z,96505.09
2022-11-09T01:26:31.771Z,96510.13
2022-11-09T01:28:58.126Z,96523.88
2022-11-09T01:31:24.518Z,96518.88
2022-11-09T01:33:51.209Z,96531.63
2022-11-09T01:36:20.518Z,96541.03
2022-11-09T01:38:47.317Z,96538.41
2022-11-09T01:41:27.828Z,96520.63
2022-11-09T01:44:11.153Z,96540.16
2022-11-09T01:46:44.932Z,96531.69
2022-11-09T01:49:40.755Z,96534.16
2022-11-09T01:52:12.578Z,96535.03
2022-11-09T01:54:45.690Z,96539.19
2022-11-09T01:57:18.026Z,96550.28
2022-11-09T01:59:48.564Z,96540.16
2022-11-09T02:02:15.313Z,96542.63
2022-11-09T02:05:05.857Z,96536.72
2022-11-09T02:07:34.011Z,96537.59
2022-11-09T02:10:33.772Z,96532.50
2022-11-09T02:13:00.346Z,96529.97
2022-11-09T02:15:27.711Z,96531.63
2022-11-09T02:17:55.898Z,96529.03
2022-11-09T02:20:23.262Z,96536.72
2022-11-09T02:22:51.092Z,96525.66
2022-11-09T02:25:17.699Z,96527.31
2022-11-09T02:27:44.513Z,96535.06
2022-11-09T02:30:12.068Z,96522.31
2022-11-09T02:32:38.483Z,96519.72
2022-11-09T02:35:05.304Z,96524.81
2022-11-09T02:37:39.890Z,96523.09
2022-11-09T02:40:32.832Z,96520.44
2022-11-09T02:43:01.547Z,96517.06
2022-11-09T02:45:28.010Z,96511.91
2022-11-09T02:47:54.438Z,96513.56
2022-11-09T02:50:20.979Z,96515.25
2022-11-09T02:52:47.326Z,96520.25
2022-11-09T02:55:13.719Z,96519.44
2022-11-09T02:57:40.307Z,96516.00
2022-11-09T03:00:07.461Z,96533.88
2022-11-09T03:02:34.049Z,96532.13
2022-11-09T03:05:00.433Z,96531.38
2022-11-09T03:07:26.976Z,96521.91
2022-11-09T03:09:53.927Z,96538.97
2022-11-09T03:12:29.522Z,96532.94
2022-11-09T03:15:05.259Z,96526.06
2022-11-09T03:17:32.435Z,96520.00
2022-11-09T03:19:58.828Z,96514.19
2022-11-09T03:22:25.184Z,96514.94
2022-11-09T03:24:51.646Z,96525.09
2022-11-09T03:27:18.203Z,96524.38
2022-11-09T03:29:44.607Z,96527.00
2022-11-09T03:32:12.001Z,96526.09
2022-11-09T03:34:38.375Z,96526.81
2022-11-09T03:37:04.768Z,96529.44
2022-11-09T03:39:31.139Z,96534.53
2022-11-09T03:41:57.510Z,96536.19
2022-11-09T03:44:23.869Z,96536.19
2022-11-09T03:46:50.221Z,96537.06
2022-11-09T03:49:16.648Z,96535.31
2022-11-09T03:51:42.992Z,96529.34
2022-11-09T03:54:09.509Z,96537.72
2022-11-09T03:56:35.838Z,96541.13
2022-11-09T03:59:02.378Z,96547.91
2022-11-09T04:01:28.856Z,96547.94
2022-11-09T04:03:55.301Z,96545.31
2022-11-09T04:06:21.671Z,96546.19
2022-11-09T04:08:51.311Z,96555.59
2022-11-09T04:11:18.266Z,96544.41
2022-11-09T04:13:44.617Z,96532.34
2022-11-09T04:16:10.970Z,96531.66
2022-11-09T04:18:37.422Z,96532.44
2022-11-09T04:21:03.781Z,96533.34
2022-11-09T04:23:30.144Z,96534.22
2022-11-09T04:25:58.502Z,96522.13
2022-11-09T04:28:25.041Z,96531.66
2022-11-09T04:30:51.612Z,96529.88
2022-11-09T04:33:18.337Z,96531.75
2022-11-09T04:35:44.903Z,96528.25
2022-11-09T04:38:13.119Z,96529.03
2022-11-09T04:40:39.551Z,96527.38
2022-11-09T04:43:07.947Z,96513.75
2022-11-09T04:45:34.675Z,96522.97
2022-11-09T04:48:02.870Z,96513.50
2022-11-09T04:50:30.522Z,96517.03
2022-11-09T04:53:07.760Z,96521.09
2022-11-09T04:55:34.407Z,96521.91
2022-11-09T04:58:00.748Z,96511.75
2022-11-09T05:00:27.153Z,96515.16
2022-11-09T05:02:53.602Z,96516.91
2022-11-09T05:05:20.044Z,96510.97
2022-11-09T05:07:46.380Z,96522.88
2022-11-09T05:10:12.717Z,96526.16
2022-11-09T05:12:43.448Z,96537.06
2022-11-09T05:15:12.169Z,96537.91
2022-11-09T05:17:38.475Z,96532.78
2022-11-09T05:20:05.183Z,96538.66
2022-11-09T05:22:50.329Z,96542.09
2022-11-09T05:25:16.810Z,96550.56
2022-11-09T05:27:43.155Z,96546.28
2022-11-09T05:30:09.944Z,96550.41
2022-11-09T05:32:39.276Z,96548.72
2022-11-09T05:35:06.064Z,96543.47
2022-11-09T05:37:32.458Z,96546.88
2022-11-09T05:39:58.855Z,96549.34
2022-11-09T05:42:25.285Z,96550.16
2022-11-09T05:44:51.709Z,96545.00
2022-11-09T05:47:19.338Z,96542.41
2022-11-09T05:49:45.703Z,96537.19
2022-11-09T05:52:12.697Z,96530.38
2022-11-09T05:54:39.112Z,96543.09
2022-11-09T05:57:05.548Z,96553.19
2022-11-09T05:59:31.923Z,96564.13
2022-11-09T06:01:58.264Z,96566.63
2022-11-09T06:04:24.785Z,96566.63
2022-11-09T06:06:51.163Z,96569.06
2022-11-09T06:09:17.634Z,96570.72
2022-11-09T06:11:43.974Z,96574.88
2022-11-09T06:14:10.312Z,96576.56
2022-11-09T06:16:36.774Z,96588.50
2022-11-09T06:19:03.252Z,96579.19
2022-11-09T06:21:29.602Z,96574.91
2022-11-09T06:23:55.976Z,96569.78
2022-11-09T06:26:22.370Z,96577.47
2022-11-09T06:28:48.779Z,96580.00
2022-11-09T06:31:16.817Z,96581.72
2022-11-09T06:33:43.581Z,96587.53
2022-11-09T06:36:11.297Z,96596.06
2022-11-09T06:38:37.805Z,96609.47
2022-11-09T06:41:04.282Z,96605.44
2022-11-09T06:43:32.048Z,96599.50
2022-11-09T06:45:58.521Z,96608.56
2022-11-09T06:48:24.911Z,96613.50
2022-11-09T06:50:51.356Z,96622.94
2022-11-09T06:53:18.624Z,96628.09
2022-11-09T06:55:50.217Z,96645.75
2022-11-09T06:58:19.356Z,96644.00
2022-11-09T07:00:46.126Z,96639.59
2022-11-09T07:03:16.898Z,96647.53
2022-11-09T07:05:43.995Z,96645.78
2022-11-09T07:08:11.061Z,96644.81
2022-11-09T07:10:37.697Z,96653.50
2022-11-09T07:13:04.993Z,96650.72
2022-11-09T07:15:32.165Z,96651.44
2022-11-09T07:18:03.491Z,96662.44
2022-11-09T07:20:29.876Z,96676.00
2022-11-09T07:22:56.527Z,96677.78
2022-11-09T07:25:23.293Z,96659.34
2022-11-09T07:27:50.225Z,96669.63
2022-11-09T07:30:16.815Z,96677.22
2022-11-09T07:35:30.789Z,96681.78
2022-11-09T07:38:01.683Z,96691.09
2022-11-09T07:40:28.295Z,96693.00
2022-11-09T07:42:58.771Z,96694.59
2022-11-09T07:45:25.937Z,96691.47
2022-11-09T07:48:00.438Z,96710.13
2022-11-09T07:50:28.366Z,96705.19
2022-11-09T07:52:56.300Z,96704.75
2022-11-09T07:55:23.369Z,96698.50
2022-11-09T07:57:54.344Z,96685.69
2022-11-09T08:00:23.594Z,96694.06
2022-11-09T08:02:50.357Z,96693.78
2022-11-09T08:05:16.889Z,96694.41
2022-11-09T08:07:43.270Z,96693.72
2022-11-09T08:10:10.067Z,96693.94
2022-11-09T08:12:37.393Z,96693.88
2022-11-09T08:15:05.247Z,96698.16
2022-11-09T08:17:32.005Z,96693.41
2022-11-09T08:19:58.338Z,96692.91
2022-11-09T08:22:24.709Z,96682.03
2022-11-09T08:24:51.268Z,96689.13
2022-11-09T08:27:17.607Z,96705.66
2022-11-09T08:29:44.848Z,96695.34
2022-11-09T08:32:11.303Z,96692.97
2022-11-09T08:34:37.625Z,96705.72
2022-11-09T08:37:05.357Z,96701.56
2022-11-09T08:39:31.743Z,96706.63
2022-11-09T08:41:58.315Z,96697.31
2022-11-09T08:44:24.665Z,96710.03
2022-11-09T08:46:51.037Z,96715.25
2022-11-09T08:49:17.958Z,96721.31
2022-11-09T08:51:44.271Z,96711.81
2022-11-09T08:54:11.302Z,96703.13
2022-11-09T08:56:37.725Z,96702.41
2022-11-09T08:59:04.070Z,96682.41
2022-11-09T09:01:31.866Z,96692.09
2022-11-09T09:03:58.248Z,96709.16
2022-11-09T09:06:29.773Z,96707.69
2022-11-09T09:08:57.381Z,96711.13
2022-11-09T09:11:23.742Z,96708.00
2022-11-09T09:13:50.229Z,96711.09
2022-11-09T09:16:16.604Z,96708.59
2022-11-09T09:18:44.066Z,96720.44
2022-11-09T09:21:10.942Z,96714.03
2022-11-09T09:23:37.391Z,96717.22
2022-11-09T09:26:04.235Z,96712.09
2022-11-09T09:28:30.631Z,96715.56
2022-11-09T09:31:01.000Z,96715.72
2022-11-09T09:33:27.990Z,96724.13
2022-11-09T09:35:58.543Z,96720.94
2022-11-09T09:38:28.914Z,96732.09
2022-11-09T09:41:03.514Z,96732.72
2022-11-09T09:43:32.089Z,96723.28
2022-11-09T09:46:00.540Z,96731.78
2022-11-09T09:48:35.026Z,96724.03
2022-11-09T09:51:32.267Z,96731.44
2022-11-09T09:54:21.460Z,96733.47
2022-11-09T09:56:50.770Z,96726.94
2022-11-09T09:59:41.465Z,96735.06
2022-11-09T10:02:35.449Z,96741.81
2022-11-09T10:05:07.931Z,96735.00
2022-11-09T10:08:14.217Z,96742.69
2022-11-09T10:11:05.723Z,96731.22
2022-11-09T10:13:55.226Z,96732.13
2022-11-09T10:16:47.612Z,96727.97
2022-11-09T10:19:32.174Z,96734.09
2022-11-09T10:22:11.433Z,96724.78
2022-11-09T10:25:12.826Z,96728.19
2022-11-09T10:27:32.484Z,96718.16
2022-11-09T10:29:59.651Z,96706.69
2022-11-09T10:32:30.319Z,96705.63
2022-11-09T10:35:13.948Z,96694.81
2022-11-09T10:37:43.076Z,96698.63
2022-11-09T10:40:31.500Z,96693.09
2022-11-09T10:43:00.651Z,96687.50
2022-11-09T10:45:30.832Z,96683.88
2022-11-09T10:47:57.701Z,96667.56
2022-11-09T10:50:53.811Z,96668.31
2022-11-09T10:53:25.561Z,96669.91
2022-11-09T10:55:56.137Z,96673.34
2022-11-09T10:58:33.072Z,96671.00
2022-11-09T11:01:03.037Z,96669.91
2022-11-09T11:03:32.863Z,96665.31
2022-11-09T11:06:27.390Z,96664.19
2022-11-09T11:09:05.731Z,96657.34
2022-11-09T11:11:37.709Z,96643.44
2022-11-09T11:14:25.283Z,96640.41
2022-11-09T11:16:53.482Z,96645.84
2022-11-09T11:19:41.367Z,96645.19
2022-11-09T11:22:23.145Z,96651.00
2022-11-09T11:24:55.505Z,96649.16
2022-11-09T11:27:22.918Z,96647.25
2022-11-09T11:29:59.332Z,96652.00
2022-11-09T11:32:25.984Z,96642.72
2022-11-09T11:35:01.165Z,96640.91
2022-11-09T11:38:09.405Z,96646.81
2022-11-09T11:40:48.586Z,96655.66
2022-11-09T11:43:24.877Z,96648.66
2022-11-09T11:46:08.764Z,96641.50
2022-11-09T11:48:48.595Z,96645.88
2022-11-09T11:51:39.988Z,96645.88
2022-11-09T11:54:20.329Z,96638.84
2022-11-09T11:56:52.629Z,96633.25
2022-11-09T11:59:35.899Z,96626.78
2022-11-09T12:02:47.014Z,96617.13
2022-11-09T12:05:43.646Z,96618.16
2022-11-09T12:08:34.505Z,96615.63
2022-11-09T12:11:30.921Z,96601.25
2022-11-09T12:14:16.702Z,96608.81
2022-11-09T12:16:48.741Z,96600.19
2022-11-09T12:19:35.099Z,96601.16
2022-11-09T12:22:18.073Z,96609.56
2022-11-09T12:24:58.856Z,96602.63
2022-11-09T12:27:48.179Z,96607.91
2022-11-09T12:30:18.271Z,96601.75
2022-11-09T12:33:06.187Z,96596.53
2022-11-09T12:35:40.764Z,96599.97
2022-11-09T12:38:18.331Z,96588.81
2022-11-09T12:40:51.905Z,96588.78
2022-11-09T12:43:25.475Z,96589.69
2022-11-09T12:45:52.977Z,96588.94
2022-11-09T12:48:25.742Z,96587.38
2022-11-09T12:50:53.672Z,96586.56
2022-11-09T12:53:24.134Z,96579.63
2022-11-09T12:55:58.485Z,96576.19
2022-11-09T12:58:30.692Z,96575.25
2022-11-09T13:00:59.791Z,96577.00
2022-11-09T13:03:32.171Z,96568.63
2022-11-09T13:06:25.348Z,96571.03
2022-11-09T13:08:59.152Z,96569.41
2022-11-09T13:11:34.118Z,96578.88
2022-11-09T13:14:22.308Z,96567.88
2022-11-09T13:16:48.568Z,96565.31
2022-11-09T13:19:38.161Z,96548.22
2022-11-09T13:22:13.635Z,96574.75
2022-11-09T13:25:00.390Z,96580.66
2022-11-09T13:27:35.194Z,96568.63
2022-11-09T13:30:02.574Z,96576.44
2022-11-09T13:32:33.083Z,96574.78
2022-11-09T13:35:01.266Z,96574.69
2022-11-09T13:37:42.662Z,96584.16
2022-11-09T13:40:30.999Z,96583.25
2022-11-09T13:43:01.682Z,96579.81
2022-11-09T13:45:36.252Z,96583.22
2022-11-09T13:48:04.429Z,96590.94
2022-11-09T13:50:33.104Z,96584.97
2022-11-09T13:53:00.854Z,96596.09
2022-11-09T13:55:53.648Z,96603.81
2022-11-09T13:58:37.360Z,96606.34
2022-11-09T14:01:03.694Z,96607.94
2022-11-09T14:03:30.190Z,96616.56
2022-11-09T14:06:00.231Z,96610.63
2022-11-09T14:08:45.759Z,96601.22
2022-11-09T14:11:21.285Z,96606.38
2022-11-09T14:14:03.856Z,96606.34
2022-11-09T14:16:45.647Z,96612.19
2022-11-09T14:19:25.177Z,96605.38
2022-11-09T14:21:52.977Z,96600.19
2022-11-09T14:24:28.830Z,96616.06
2022-11-09T14:27:10.180Z,96617.59
2022-11-09T14:29:50.335Z,96615.03
2022-11-09T14:32:35.540Z,96615.13
2022-11-09T14:35:33.472Z,96611.66
2022-11-09T14:38:13.050Z,96607.50
2022-11-09T14:40:45.673Z,96609.44
2022-11-09T14:43:29.451Z,96606.69
2022-11-09T14:46:02.898Z,96613.19
2022-11-09T14:48:31.804Z,96613.94
2022-11-09T14:51:01.007Z,96622.16
2022-11-09T14:53:34.929Z,96614.25
2022-11-09T14:56:04.578Z,96626.03
2022-11-09T14:58:34.678Z,96616.41
2022-11-09T15:01:24.354Z,96618.03
2022-11-09T15:04:11.256Z,96620.59
2022-11-09T15:06:50.917Z,96624.84
2022-11-09T15:09:20.773Z,96626.44
2022-11-09T15:11:48.266Z,96612.72
2022-11-09T15:14:17.725Z,96626.25
2022-11-09T15:16:45.356Z,96638.16
2022-11-09T15:19:32.849Z,96636.44
2022-11-09T15:21:59.646Z,96624.25
2022-11-09T15:24:28.654Z,96635.47
2022-11-09T15:26:56.806Z,96643.84
2022-11-09T15:29:27.638Z,96642.09
2022-11-09T15:32:21.963Z,96652.28
2022-11-09T15:34:51.360Z,96649.81
2022-11-09T15:37:31.120Z,96642.88
2022-11-09T15:39:58.743Z,96650.53
2022-11-09T15:42:26.416Z,96647.06
2022-11-09T15:44:55.467Z,96652.13
2022-11-09T15:47:33.193Z,96650.34
2022-11-09T15:50:01.582Z,96641.97
2022-11-09T15:52:28.586Z,96646.94
2022-11-09T15:54:54.906Z,96642.81
2022-11-09T15:57:21.787Z,96641.09
2022-11-09T15:59:50.450Z,96646.22
2022-11-09T16:02:18.994Z,96648.69
2022-11-09T16:04:45.337Z,96649.63
2022-11-09T16:07:15.201Z,96664.88
2022-11-09T16:09:42.487Z,96655.50
2022-11-09T16:12:09.711Z,96665.72
2022-11-09T16:14:36.218Z,96669.03
2022-11-09T16:17:04.298Z,96662.25
2022-11-09T16:19:30.655Z,96665.53
2022-11-09T16:21:58.424Z,96668.22
2022-11-09T16:24:24.796Z,96659.00
2022-11-09T16:26:52.874Z,96661.41
2022-11-09T16:29:19.450Z,96667.44
2022-11-09T16:31:51.778Z,96670.94
2022-11-09T16:34:19.172Z,96676.84
2022-11-09T16:36:50.868Z,96687.03
2022-11-09T16:39:19.245Z,96683.66
2022-11-09T16:41:48.877Z,96689.69
2022-11-09T16:44:18.509Z,96681.09
2022-11-09T16:46:47.020Z,96684.59
2022-11-09T16:49:14.562Z,96698.19
2022-11-09T16:51:41.022Z,96694.69
2022-11-09T16:54:07.434Z,96713.59
2022-11-09T16:56:35.221Z,96710.28
2022-11-09T16:59:01.667Z,96705.09
2022-11-09T17:01:28.132Z,96714.31
2022-11-09T17:03:54.690Z,96716.09
2022-11-09T17:06:21.035Z,96699.06
2022-11-09T17:08:47.575Z,96709.25
2022-11-09T17:11:15.258Z,96719.50
2022-11-09T17:13:43.013Z,96717.03
2022-11-09T17:16:12.879Z,96723.16
2022-11-09T17:18:39.722Z,96725.59
2022-11-09T17:21:10.923Z,96729.84
2022-11-09T17:23:38.495Z,96730.81
2022-11-09T17:26:07.152Z,96726.41
2022-11-09T17:28:37.659Z,96731.47
2022-11-09T17:31:12.802Z,96732.47
2022-11-09T17:33:39.185Z,96731.63
2022-11-09T17:36:08.027Z,96737.63
2022-11-09T17:38:34.893Z,96731.72
2022-11-09T17:41:07.924Z,96736.81
2022-11-09T17:43:38.185Z,96746.19
2022-11-09T17:46:07.506Z,96741.03
2022-11-09T17:48:36.305Z,96745.34
2022-11-09T17:51:03.967Z,96744.53
2022-11-09T17:53:30.651Z,96745.41
2022-11-09T17:55:58.927Z,96742.81
2022-11-09T17:58:25.815Z,96744.56
2022-11-09T18:00:52.388Z,96748.78
2022-11-09T18:03:19.105Z,96743.72
2022-11-09T18:05:45.985Z,96739.44
2022-11-09T18:08:14.353Z,96749.56
2022-11-09T18:10:44.498Z,96750.38
2022-11-09T18:13:11.719Z,96745.41
2022-11-09T18:15:39.140Z,96746.28
2022-11-09T18:18:06.871Z,96747.09
2022-11-09T18:20:33.889Z,96759.09
2022-11-09T18:23:00.230Z,96767.66
2022-11-09T18:25:26.584Z,96760.91
2022-11-09T18:27:53.000Z,96753.19
2022-11-09T18:30:19.765Z,96763.38
2022-11-09T18:32:46.264Z,96760.72
2022-11-09T18:35:12.754Z,96777.84
2022-11-09T18:37:39.830Z,96769.22
2022-11-09T18:40:07.621Z,96776.13
2022-11-09T18:42:34.075Z,96779.44
2022-11-09T18:45:00.537Z,96783.69
2022-11-09T18:47:27.091Z,96775.13
2022-11-09T18:49:53.472Z,96762.28
2022-11-09T18:52:19.907Z,96761.38
2022-11-09T18:54:46.374Z,96768.06
2022-11-09T18:57:16.001Z,96757.06
2022-11-09T18:59:46.012Z,96762.91
2022-11-09T19:02:13.920Z,96769.72
2022-11-09T19:04:40.907Z,96784.13
2022-11-09T19:07:07.414Z,96780.69
2022-11-09T19:09:38.567Z,96778.22
2022-11-09T19:12:10.202Z,96784.16
2022-11-09T19:14:41.180Z,96779.03
2022-11-09T19:17:14.224Z,96779.97
2022-11-09T19:19:42.207Z,96791.88
2022-11-09T19:22:15.051Z,96791.81
2022-11-09T19:24:41.697Z,96800.47
2022-11-09T19:27:08.071Z,96791.19
2022-11-09T19:29:34.470Z,96786.94
2022-11-09T19:32:00.851Z,96773.16
2022-11-09T19:34:27.451Z,96787.63
2022-11-09T19:36:53.917Z,96787.63
2022-11-09T19:39:20.471Z,96783.34
2022-11-09T19:41:47.861Z,96794.34
2022-11-09T19:44:14.926Z,96793.47
2022-11-09T19:46:41.545Z,96790.88
2022-11-09T19:49:09.193Z,96797.63
2022-11-09T19:51:36.591Z,96804.53
2022-11-09T19:54:04.594Z,96807.16
2022-11-09T19:56:32.468Z,96810.47
2022-11-09T19:59:01.248Z,96814.84
2022-11-09T20:01:27.994Z,96820.84
2022-11-09T20:03:56.223Z,96834.47
2022-11-09T20:06:24.227Z,96833.66
2022-11-09T20:08:52.101Z,96840.31
2022-11-09T20:11:40.646Z,96838.72
2022-11-09T20:14:08.313Z,96846.25
2022-11-09T20:16:36.466Z,96848.00
2022-11-09T20:19:04.849Z,96845.47
2022-11-09T20:21:31.600Z,96854.78
2022-11-09T20:23:58.397Z,96851.31
2022-11-09T20:26:24.747Z,96849.59
2022-11-09T20:28:54.684Z,96860.75
2022-11-09T20:31:22.727Z,96858.91
2022-11-09T20:33:50.147Z,96858.97
2022-11-09T20:36:18.726Z,96866.50
2022-11-09T20:38:45.897Z,96867.41
2022-11-09T20:41:12.330Z,96867.50
2022-11-09T20:43:39.522Z,96859.88
2022-11-09T20:46:08.853Z,96870.81
2022-11-09T20:48:53.442Z,96869.16
2022-11-09T20:51:21.260Z,96870.91
2022-11-09T20:53:50.088Z,96878.66
2022-11-09T20:56:17.577Z,96882.84
2022-11-09T20:58:43.989Z,96882.03
2022-11-09T21:01:13.627Z,96882.06
2022-11-09T21:03:40.399Z,96888.88
2022-11-09T21:06:07.848Z,96888.06
2022-11-09T21:08:35.758Z,96889.72
2022-11-09T21:11:04.491Z,96894.84
2022-11-09T21:13:31.527Z,96897.34
2022-11-09T21:16:09.076Z,96897.53
2022-11-09T21:18:35.895Z,96895.88
2022-11-09T21:21:13.406Z,96900.00
2022-11-09T21:23:58.732Z,96906.03
2022-11-09T21:26:43.978Z,96896.53
2022-11-09T21:29:32.974Z,96913.72
2022-11-09T21:31:59.597Z,96915.53
2022-11-09T21:34:26.346Z,96907.84
2022-11-09T21:36:52.720Z,96907.00
2022-11-09T21:39:19.026Z,96916.38
2022-11-09T21:41:45.566Z,96912.22
2022-11-09T21:44:12.495Z,96911.22
2022-11-09T21:46:40.549Z,96916.31
2022-11-09T21:49:08.878Z,96918.84
2022-11-09T21:51:37.029Z,96909.38
2022-11-09T21:54:04.794Z,96920.63
2022-11-09T21:56:31.160Z,96918.94
2022-11-09T21:58:57.927Z,96925.72
2022-11-09T22:01:24.408Z,96914.69
2022-11-09T22:03:51.043Z,96913.78
2022-11-09T22:06:17.840Z,96918.06
2022-11-09T22:08:44.818Z,96914.47
2022-11-09T22:11:41.572Z,96915.31
2022-11-09T22:14:34.787Z,96918.84
2022-11-09T22:17:01.521Z,96920.53
2022-11-09T22:19:46.837Z,96922.41
2022-11-09T22:22:14.217Z,96931.69
2022-11-09T22:24:40.922Z,96921.38
2022-11-09T22:27:07.719Z,96926.41
2022-11-09T22:29:34.203Z,96930.63
2022-11-09T22:32:00.623Z,96939.13
2022-11-09T22:34:27.295Z,96934.03
2022-11-09T22:36:53.667Z,96930.56
2022-11-09T22:39:20.265Z,96929.88
2022-11-09T22:41:46.608Z,96933.16
2022-11-09T22:44:13.331Z,96939.25
2022-11-09T22:46:39.718Z,96938.25
2022-11-09T22:49:06.638Z,96945.91
2022-11-09T22:51:32.997Z,96947.84
2022-11-09T22:53:59.317Z,96946.03
2022-11-09T22:56:25.703Z,96951.06
2022-11-09T22:58:52.707Z,96944.31
2022-11-09T23:01:20.673Z,96948.50
2022-11-09T23:03:47.450Z,96955.34
2022-11-09T23:06:19.291Z,96954.47
2022-11-09T23:08:46.293Z,96959.66
2022-11-09T23:11:17.478Z,96952.91
2022-11-09T23:13:43.772Z,96964.03
2022-11-09T23:16:11.739Z,96969.97
2022-11-09T23:18:53.386Z,96974.19
2022-11-09T23:21:29.811Z,96972.44
2022-11-09T23:23:59.992Z,96970.78
2022-11-09T23:26:27.866Z,96973.25
2022-11-09T23:28:54.933Z,96973.41
2022-11-09T23:31:25.056Z,96982.66
2022-11-09T23:33:54.318Z,96979.97
2022-11-09T23:36:25.852Z,96987.63
2022-11-09T23:38:52.826Z,96981.84
2022-11-09T23:41:19.542Z,96994.84
2022-11-09T23:43:49.188Z,96991.47
2022-11-09T23:46:17.328Z,96993.13
2022-11-09T23:48:44.129Z,96995.81
2022-11-09T23:51:10.691Z,96993.28
2022-11-09T23:53:37.637Z,97001.84
2022-11-09T23:56:09.361Z,97004.50
2022-11-09T23:58:36.396Z,97005.31
